sensor_id;sensor_type;location;lat;lon;timestamp;pressure;altitude;pressure_sealevel;temperature;humidity
25722;BME280;13578;53.450;15.496;2023-05-08T00:00:17;101024.88;;;4.63;100.00
25722;BME280;13578;53.450;15.496;2023-05-08T00:03:18;101031.66;;;4.73;100.00
25722;BME280;13578;53.450;15.496;2023-05-08T00:06:19;101025.13;;;4.77;100.00
25722;BME280;13578;53.450;15.496;2023-05-08T00:09:19;101023.34;;;4.76;100.00
25722;BME280;13578;53.450;15.496;2023-05-08T00:12:20;101026.13;;;4.74;100.00
25722;BME280;13578;53.450;15.496;2023-05-08T00:15:21;101023.56;;;4.71;100.00
25722;BME280;13578;53.450;15.496;2023-05-08T00:18:21;101031.66;;;4.73;100.00
25722;BME280;13578;53.450;15.496;2023-05-08T00:21:22;101039.69;;;4.76;100.00
25722;BME280;13578;53.450;15.496;2023-05-08T00:24:23;101041.56;;;4.74;100.00
25722;BME280;13578;53.450;15.496;2023-05-08T00:27:24;101047.16;;;4.71;100.00
25722;BME280;13578;53.450;15.496;2023-05-08T00:30:25;101042.81;;;4.67;100.00
25722;BME280;13578;53.450;15.496;2023-05-08T00:33:26;101041.41;;;4.58;100.00
25722;BME280;13578;53.450;15.496;2023-05-08T00:36:27;101044.25;;;4.55;100.00
25722;BME280;13578;53.450;15.496;2023-05-08T00:39:28;101030.44;;;4.59;100.00
25722;BME280;13578;53.450;15.496;2023-05-08T00:42:28;101036.09;;;4.55;100.00
25722;BME280;13578;53.450;15.496;2023-05-08T00:45:36;101046.03;;;4.56;100.00
25722;BME280;13578;53.450;15.496;2023-05-08T00:48:38;101040.66;;;4.54;100.00
25722;BME280;13578;53.450;15.496;2023-05-08T00:51:40;101041.72;;;4.50;100.00
25722;BME280;13578;53.450;15.496;2023-05-08T00:54:43;101044.63;;;4.47;100.00
25722;BME280;13578;53.450;15.496;2023-05-08T00:57:46;101047.56;;;4.41;100.00
25722;BME280;13578;53.450;15.496;2023-05-08T01:00:49;101040.53;;;4.37;100.00
25722;BME280;13578;53.450;15.496;2023-05-08T01:03:51;101041.47;;;4.36;100.00
25722;BME280;13578;53.450;15.496;2023-05-08T01:06:52;101047.06;;;4.33;100.00
25722;BME280;13578;53.450;15.496;2023-05-08T01:09:52;101049.81;;;4.31;100.00
25722;BME280;13578;53.450;15.496;2023-05-08T01:16:35;101046.25;;;4.31;100.00
25722;BME280;13578;53.450;15.496;2023-05-08T01:19:58;101053.84;;;4.22;100.00
25722;BME280;13578;53.450;15.496;2023-05-08T01:23:31;101060.56;;;4.13;100.00
25722;BME280;13578;53.450;15.496;2023-05-08T01:37:04;101066.53;;;3.79;100.00
25722;BME280;13578;53.450;15.496;2023-05-08T01:40:11;101066.53;;;3.79;100.00
25722;BME280;13578;53.450;15.496;2023-05-08T01:46:47;101063.38;;;3.68;100.00
25722;BME280;13578;53.450;15.496;2023-05-08T01:49:59;101062.19;;;3.53;100.00
25722;BME280;13578;53.450;15.496;2023-05-08T01:53:10;101069.56;;;3.49;100.00
25722;BME280;13578;53.450;15.496;2023-05-08T01:56:15;101071.94;;;3.34;100.00
25722;BME280;13578;53.450;15.496;2023-05-08T01:59:20;101072.06;;;3.31;100.00
25722;BME280;13578;53.450;15.496;2023-05-08T02:02:21;101076.88;;;3.25;100.00
25722;BME280;13578;53.450;15.496;2023-05-08T02:05:23;101076.09;;;3.21;100.00
25722;BME280;13578;53.450;15.496;2023-05-08T02:08:25;101079.81;;;3.18;100.00
25722;BME280;13578;53.450;15.496;2023-05-08T02:11:27;101070.72;;;3.20;100.00
25722;BME280;13578;53.450;15.496;2023-05-08T02:14:31;101077.88;;;3.22;100.00
25722;BME280;13578;53.450;15.496;2023-05-08T02:17:33;101075.44;;;3.14;100.00
25722;BME280;13578;53.450;15.496;2023-05-08T02:20:38;101073.66;;;3.13;100.00
25722;BME280;13578;53.450;15.496;2023-05-08T02:23:40;101081.97;;;3.09;100.00
25722;BME280;13578;53.450;15.496;2023-05-08T02:26:43;101076.78;;;3.02;100.00
25722;BME280;13578;53.450;15.496;2023-05-08T02:29:46;101076.00;;;3.00;100.00
25722;BME280;13578;53.450;15.496;2023-05-08T02:32:48;101080.69;;;2.95;100.00
25722;BME280;13578;53.450;15.496;2023-05-08T02:35:49;101079.69;;;2.98;100.00
25722;BME280;13578;53.450;15.496;2023-05-08T02:38:53;101077.28;;;2.90;100.00
25722;BME280;13578;53.450;15.496;2023-05-08T02:41:55;101083.81;;;2.84;100.00
25722;BME280;13578;53.450;15.496;2023-05-08T02:44:56;101077.59;;;2.81;100.00
25722;BME280;13578;53.450;15.496;2023-05-08T02:48:06;101078.44;;;2.83;100.00
25722;BME280;13578;53.450;15.496;2023-05-08T02:51:17;101073.97;;;2.82;100.00
25722;BME280;13578;53.450;15.496;2023-05-08T02:54:23;101078.69;;;2.77;100.00
25722;BME280;13578;53.450;15.496;2023-05-08T02:57:49;101081.50;;;2.74;100.00
25722;BME280;13578;53.450;15.496;2023-05-08T03:01:02;101088.06;;;2.68;100.00
25722;BME280;13578;53.450;15.496;2023-05-08T03:04:11;101078.00;;;2.70;100.00
25722;BME280;13578;53.450;15.496;2023-05-08T03:07:15;101083.25;;;2.75;100.00
25722;BME280;13578;53.450;15.496;2023-05-08T03:10:18;101083.16;;;2.78;100.00
25722;BME280;13578;53.450;15.496;2023-05-08T03:13:21;101079.63;;;2.76;100.00
25722;BME280;13578;53.450;15.496;2023-05-08T03:16:24;101088.63;;;2.76;100.00
25722;BME280;13578;53.450;15.496;2023-05-08T03:19:30;101083.19;;;2.76;100.00
25722;BME280;13578;53.450;15.496;2023-05-08T03:22:35;101077.84;;;2.75;100.00
25722;BME280;13578;53.450;15.496;2023-05-08T03:25:38;101080.22;;;2.84;100.00
25722;BME280;13578;53.450;15.496;2023-05-08T03:28:40;101084.47;;;2.91;100.00
25722;BME280;13578;53.450;15.496;2023-05-08T03:31:41;101086.19;;;3.17;100.00
25722;BME280;13578;53.450;15.496;2023-05-08T03:34:44;101085.63;;;3.77;100.00
25722;BME280;13578;53.450;15.496;2023-05-08T03:37:45;101098.91;;;4.28;100.00
25722;BME280;13578;53.450;15.496;2023-05-08T03:40:46;101106.19;;;4.69;100.00
25722;BME280;13578;53.450;15.496;2023-05-08T03:43:49;101111.69;;;5.07;100.00
25722;BME280;13578;53.450;15.496;2023-05-08T03:46:52;101117.34;;;5.42;100.00
25722;BME280;13578;53.450;15.496;2023-05-08T03:49:56;101112.47;;;5.68;100.00
25722;BME280;13578;53.450;15.496;2023-05-08T03:52:59;101109.31;;;5.77;100.00
25722;BME280;13578;53.450;15.496;2023-05-08T03:56:01;101109.50;;;5.92;100.00
25722;BME280;13578;53.450;15.496;2023-05-08T03:59:15;101120.44;;;6.46;100.00
25722;BME280;13578;53.450;15.496;2023-05-08T04:02:43;101111.28;;;7.15;100.00
25722;BME280;13578;53.450;15.496;2023-05-08T04:05:52;101110.09;;;7.53;100.00
25722;BME280;13578;53.450;15.496;2023-05-08T04:09:04;101106.25;;;7.73;100.00
25722;BME280;13578;53.450;15.496;2023-05-08T04:12:14;101111.78;;;7.88;100.00
25722;BME280;13578;53.450;15.496;2023-05-08T04:15:20;101109.13;;;8.02;100.00
25722;BME280;13578;53.450;15.496;2023-05-08T04:18:27;101114.69;;;8.01;100.00
25722;BME280;13578;53.450;15.496;2023-05-08T04:21:28;101113.72;;;7.54;100.00
25722;BME280;13578;53.450;15.496;2023-05-08T04:24:38;101126.09;;;6.94;100.00
25722;BME280;13578;53.450;15.496;2023-05-08T04:27:40;101138.16;;;6.55;100.00
25722;BME280;13578;53.450;15.496;2023-05-08T04:30:41;101139.94;;;6.38;100.00
25722;BME280;13578;53.450;15.496;2023-05-08T04:33:43;101135.75;;;6.31;100.00
25722;BME280;13578;53.450;15.496;2023-05-08T04:36:44;101143.75;;;6.34;100.00
25722;BME280;13578;53.450;15.496;2023-05-08T04:39:49;101147.13;;;6.39;100.00
25722;BME280;13578;53.450;15.496;2023-05-08T04:42:50;101147.94;;;6.41;100.00
25722;BME280;13578;53.450;15.496;2023-05-08T04:45:51;101151.06;;;6.51;100.00
25722;BME280;13578;53.450;15.496;2023-05-08T04:48:51;101155.69;;;6.68;100.00
25722;BME280;13578;53.450;15.496;2023-05-08T04:51:52;101159.34;;;6.84;100.00
25722;BME280;13578;53.450;15.496;2023-05-08T04:54:52;101160.44;;;6.98;100.00
25722;BME280;13578;53.450;15.496;2023-05-08T04:57:53;101163.28;;;7.30;100.00
25722;BME280;13578;53.450;15.496;2023-05-08T05:00:54;101167.16;;;7.59;100.00
25722;BME280;13578;53.450;15.496;2023-05-08T05:03:54;101168.94;;;7.92;100.00
25722;BME280;13578;53.450;15.496;2023-05-08T05:06:55;101166.91;;;8.28;100.00
25722;BME280;13578;53.450;15.496;2023-05-08T05:09:55;101181.09;;;8.51;100.00
25722;BME280;13578;53.450;15.496;2023-05-08T05:12:56;101177.84;;;8.74;100.00
25722;BME280;13578;53.450;15.496;2023-05-08T05:15:58;101182.38;;;8.90;100.00
25722;BME280;13578;53.450;15.496;2023-05-08T05:18:59;101181.75;;;9.15;100.00
25722;BME280;13578;53.450;15.496;2023-05-08T05:21:59;101188.94;;;9.32;100.00
25722;BME280;13578;53.450;15.496;2023-05-08T05:25:00;101179.16;;;9.43;100.00
25722;BME280;13578;53.450;15.496;2023-05-08T05:28:01;101181.50;;;9.49;100.00
25722;BME280;13578;53.450;15.496;2023-05-08T05:31:01;101187.19;;;9.60;100.00
25722;BME280;13578;53.450;15.496;2023-05-08T05:34:02;101193.63;;;9.74;100.00
25722;BME280;13578;53.450;15.496;2023-05-08T05:37:03;101180.78;;;9.89;100.00
25722;BME280;13578;53.450;15.496;2023-05-08T05:40:04;101172.16;;;9.95;100.00
25722;BME280;13578;53.450;15.496;2023-05-08T05:43:05;101181.13;;;10.11;100.00
25722;BME280;13578;53.450;15.496;2023-05-08T05:46:07;101183.16;;;10.22;100.00
25722;BME280;13578;53.450;15.496;2023-05-08T05:49:08;101177.66;;;10.22;100.00
25722;BME280;13578;53.450;15.496;2023-05-08T05:52:08;101175.69;;;10.39;100.00
25722;BME280;13578;53.450;15.496;2023-05-08T05:55:09;101173.09;;;10.50;100.00
25722;BME280;13578;53.450;15.496;2023-05-08T05:58:10;101162.47;;;10.58;100.00
25722;BME280;13578;53.450;15.496;2023-05-08T06:01:11;101164.03;;;10.62;100.00
25722;BME280;13578;53.450;15.496;2023-05-08T06:04:12;101162.97;;;10.78;100.00
25722;BME280;13578;53.450;15.496;2023-05-08T06:07:12;101160.44;;;10.75;100.00
25722;BME280;13578;53.450;15.496;2023-05-08T06:10:13;101171.56;;;10.86;100.00
25722;BME280;13578;53.450;15.496;2023-05-08T06:13:13;101158.94;;;10.96;100.00
25722;BME280;13578;53.450;15.496;2023-05-08T06:16:14;101154.66;;;10.92;100.00
25722;BME280;13578;53.450;15.496;2023-05-08T06:19:15;101166.06;;;10.99;100.00
25722;BME280;13578;53.450;15.496;2023-05-08T06:22:16;101158.63;;;11.14;100.00
25722;BME280;13578;53.450;15.496;2023-05-08T06:25:17;101128.09;;;11.19;100.00
25722;BME280;13578;53.450;15.496;2023-05-08T06:28:18;101145.44;;;11.19;100.00
25722;BME280;13578;53.450;15.496;2023-05-08T06:31:19;101127.63;;;11.38;100.00
25722;BME280;13578;53.450;15.496;2023-05-08T06:34:20;101150.56;;;11.63;100.00
25722;BME280;13578;53.450;15.496;2023-05-08T06:37:21;101119.88;;;11.69;100.00
25722;BME280;13578;53.450;15.496;2023-05-08T06:40:22;101127.66;;;11.75;100.00
25722;BME280;13578;53.450;15.496;2023-05-08T06:43:23;101128.03;;;11.70;100.00
25722;BME280;13578;53.450;15.496;2023-05-08T06:46:23;101108.97;;;11.80;100.00
25722;BME280;13578;53.450;15.496;2023-05-08T06:49:24;101122.78;;;11.91;100.00
25722;BME280;13578;53.450;15.496;2023-05-08T06:52:25;101122.94;;;12.14;100.00
25722;BME280;13578;53.450;15.496;2023-05-08T06:55:25;101105.41;;;12.28;100.00
25722;BME280;13578;53.450;15.496;2023-05-08T06:58:26;101103.13;;;12.22;99.18
25722;BME280;13578;53.450;15.496;2023-05-08T07:01:26;101115.41;;;12.29;100.00
25722;BME280;13578;53.450;15.496;2023-05-08T07:04:27;101083.13;;;12.31;93.66
25722;BME280;13578;53.450;15.496;2023-05-08T07:07:28;101102.38;;;12.31;97.39
25722;BME280;13578;53.450;15.496;2023-05-08T07:10:28;101112.09;;;12.48;98.54
25722;BME280;13578;53.450;15.496;2023-05-08T07:13:29;101094.78;;;12.59;93.79
25722;BME280;13578;53.450;15.496;2023-05-08T07:16:29;101115.97;;;12.70;96.00
25722;BME280;13578;53.450;15.496;2023-05-08T07:19:30;101103.34;;;12.90;94.24
25722;BME280;13578;53.450;15.496;2023-05-08T07:22:31;101091.13;;;13.17;89.57
25722;BME280;13578;53.450;15.496;2023-05-08T07:25:32;101075.31;;;13.08;88.20
25722;BME280;13578;53.450;15.496;2023-05-08T07:28:32;101111.91;;;13.21;90.87
25722;BME280;13578;53.450;15.496;2023-05-08T07:31:33;101086.34;;;13.08;87.34
25722;BME280;13578;53.450;15.496;2023-05-08T07:34:34;101101.53;;;13.13;92.01
25722;BME280;13578;53.450;15.496;2023-05-08T07:37:34;101102.78;;;13.32;90.89
25722;BME280;13578;53.450;15.496;2023-05-08T07:40:35;101081.00;;;13.29;86.93
25722;BME280;13578;53.450;15.496;2023-05-08T07:43:36;101104.72;;;13.54;92.40
25722;BME280;13578;53.450;15.496;2023-05-08T07:46:37;101070.94;;;13.73;86.04
25722;BME280;13578;53.450;15.496;2023-05-08T07:49:37;101082.09;;;13.83;85.06
25722;BME280;13578;53.450;15.496;2023-05-08T07:52:38;101088.88;;;13.90;86.97
25722;BME280;13578;53.450;15.496;2023-05-08T07:55:39;101061.00;;;13.93;82.28
25722;BME280;13578;53.450;15.496;2023-05-08T07:58:39;101092.19;;;14.05;86.03
25722;BME280;13578;53.450;15.496;2023-05-08T08:01:41;101080.63;;;14.11;84.13
25722;BME280;13578;53.450;15.496;2023-05-08T08:04:46;101088.00;;;14.22;85.76
25722;BME280;13578;53.450;15.496;2023-05-08T08:07:46;101062.06;;;14.13;80.45
25722;BME280;13578;53.450;15.496;2023-05-08T08:10:48;101100.63;;;14.04;86.38
25722;BME280;13578;53.450;15.496;2023-05-08T08:13:49;101083.09;;;14.26;83.64
25722;BME280;13578;53.450;15.496;2023-05-08T08:16:49;101076.31;;;14.51;82.33
25722;BME280;13578;53.450;15.496;2023-05-08T08:19:50;101068.66;;;14.34;81.11
25722;BME280;13578;53.450;15.496;2023-05-08T08:22:50;101081.16;;;14.38;82.67
25722;BME280;13578;53.450;15.496;2023-05-08T08:25:51;101066.81;;;14.23;80.29
25722;BME280;13578;53.450;15.496;2023-05-08T08:28:52;101060.06;;;14.37;79.49
25722;BME280;13578;53.450;15.496;2023-05-08T08:31:53;101056.00;;;14.52;76.31
25722;BME280;13578;53.450;15.496;2023-05-08T08:34:53;101020.28;;;14.39;71.63
25722;BME280;13578;53.450;15.496;2023-05-08T08:37:55;101052.81;;;14.68;75.69
25722;BME280;13578;53.450;15.496;2023-05-08T08:40:56;101047.94;;;14.82;75.10
25722;BME280;13578;53.450;15.496;2023-05-08T08:43:56;101052.19;;;14.86;75.20
25722;BME280;13578;53.450;15.496;2023-05-08T08:46:58;101031.38;;;14.82;71.50
25722;BME280;13578;53.450;15.496;2023-05-08T08:50:01;101047.31;;;14.99;73.48
25722;BME280;13578;53.450;15.496;2023-05-08T08:53:18;101022.72;;;14.96;69.41
25722;BME280;13578;53.450;15.496;2023-05-08T08:56:22;101026.13;;;15.09;69.29
25722;BME280;13578;53.450;15.496;2023-05-08T08:59:26;101008.13;;;15.15;65.19
25722;BME280;13578;53.450;15.496;2023-05-08T09:02:29;101014.38;;;15.17;66.63
25722;BME280;13578;53.450;15.496;2023-05-08T09:05:30;101032.75;;;15.28;71.44
25722;BME280;13578;53.450;15.496;2023-05-08T09:08:33;101009.69;;;15.49;65.80
25722;BME280;13578;53.450;15.496;2023-05-08T09:11:35;101008.81;;;15.48;65.90
25722;BME280;13578;53.450;15.496;2023-05-08T09:14:36;101008.59;;;15.30;65.57
25722;BME280;13578;53.450;15.496;2023-05-08T09:17:37;101023.66;;;15.47;68.89
25722;BME280;13578;53.450;15.496;2023-05-08T09:20:39;101031.44;;;15.63;69.60
25722;BME280;13578;53.450;15.496;2023-05-08T09:23:59;101037.25;;;15.60;69.07
25722;BME280;13578;53.450;15.496;2023-05-08T09:27:00;101010.88;;;15.56;66.35
25722;BME280;13578;53.450;15.496;2023-05-08T09:30:08;101011.91;;;15.55;64.64
25722;BME280;13578;53.450;15.496;2023-05-08T09:33:09;101022.25;;;15.72;67.57
25722;BME280;13578;53.450;15.496;2023-05-08T09:36:24;101019.88;;;15.99;67.17
25722;BME280;13578;53.450;15.496;2023-05-08T09:39:27;100977.41;;;15.79;61.27
25722;BME280;13578;53.450;15.496;2023-05-08T09:42:36;101012.16;;;16.02;64.97
25722;BME280;13578;53.450;15.496;2023-05-08T09:45:37;100973.69;;;15.99;60.04
25722;BME280;13578;53.450;15.496;2023-05-08T09:48:39;101010.97;;;15.95;63.84
25722;BME280;13578;53.450;15.496;2023-05-08T09:51:50;100987.88;;;15.75;62.15
25722;BME280;13578;53.450;15.496;2023-05-08T09:54:56;101020.28;;;15.84;66.79
25722;BME280;13578;53.450;15.496;2023-05-08T09:57:58;100976.59;;;15.98;60.22
25722;BME280;13578;53.450;15.496;2023-05-08T10:00:59;100999.94;;;16.15;63.11
25722;BME280;13578;53.450;15.496;2023-05-08T10:04:01;100992.34;;;15.97;61.06
25722;BME280;13578;53.450;15.496;2023-05-08T10:07:02;100967.94;;;15.71;59.32
25722;BME280;13578;53.450;15.496;2023-05-08T10:10:04;100976.63;;;15.57;59.67
25722;BME280;13578;53.450;15.496;2023-05-08T10:13:05;100994.94;;;15.89;63.95
25722;BME280;13578;53.450;15.496;2023-05-08T10:16:06;100982.84;;;16.00;61.14
25722;BME280;13578;53.450;15.496;2023-05-08T10:19:15;101005.47;;;16.25;63.79
25722;BME280;13578;53.450;15.496;2023-05-08T10:22:17;100974.81;;;16.36;60.69
25722;BME280;13578;53.450;15.496;2023-05-08T10:25:21;100943.78;;;16.32;55.77
25722;BME280;13578;53.450;15.496;2023-05-08T10:28:28;100952.84;;;16.25;56.58
25722;BME280;13578;53.450;15.496;2023-05-08T10:31:34;100984.00;;;16.27;60.62
25722;BME280;13578;53.450;15.496;2023-05-08T10:34:39;100989.69;;;16.55;63.13
25722;BME280;13578;53.450;15.496;2023-05-08T10:37:40;100961.94;;;16.64;59.78
25722;BME280;13578;53.450;15.496;2023-05-08T10:40:41;100971.72;;;16.59;60.23
25722;BME280;13578;53.450;15.496;2023-05-08T10:43:42;100945.25;;;16.37;56.37
25722;BME280;13578;53.450;15.496;2023-05-08T10:46:53;100959.78;;;16.39;58.85
25722;BME280;13578;53.450;15.496;2023-05-08T10:57:12;100942.16;;;16.40;57.15
25722;BME280;13578;53.450;15.496;2023-05-08T11:00:13;100967.25;;;16.38;59.99
25722;BME280;13578;53.450;15.496;2023-05-08T11:03:16;100946.22;;;16.55;59.05
25722;BME280;13578;53.450;15.496;2023-05-08T11:06:43;100956.41;;;16.64;59.88
25722;BME280;13578;53.450;15.496;2023-05-08T11:09:46;100916.09;;;16.80;56.12
25722;BME280;13578;53.450;15.496;2023-05-08T11:12:49;100935.91;;;16.95;58.38
25722;BME280;13578;53.450;15.496;2023-05-08T11:15:50;100958.25;;;16.93;61.97
25722;BME280;13578;53.450;15.496;2023-05-08T11:19:16;100959.50;;;16.89;62.61
25722;BME280;13578;53.450;15.496;2023-05-08T11:22:22;100920.91;;;16.78;57.47
25722;BME280;13578;53.450;15.496;2023-05-08T11:25:40;100939.41;;;16.87;59.83
25722;BME280;13578;53.450;15.496;2023-05-08T11:28:56;100931.25;;;16.95;58.42
25722;BME280;13578;53.450;15.496;2023-05-08T11:31:57;100928.25;;;17.07;58.11
25722;BME280;13578;53.450;15.496;2023-05-08T11:34:58;100928.41;;;17.05;57.55
25722;BME280;13578;53.450;15.496;2023-05-08T11:38:15;100896.25;;;16.85;54.62
25722;BME280;13578;53.450;15.496;2023-05-08T11:41:21;100954.84;;;16.99;61.05
25722;BME280;13578;53.450;15.496;2023-05-08T11:44:22;100960.50;;;17.08;61.66
25722;BME280;13578;53.450;15.496;2023-05-08T11:47:24;100940.31;;;17.15;60.79
25722;BME280;13578;53.450;15.496;2023-05-08T11:50:34;100907.81;;;17.08;57.63
25722;BME280;13578;53.450;15.496;2023-05-08T11:53:36;100969.75;;;17.26;64.62
25722;BME280;13578;53.450;15.496;2023-05-08T11:56:37;100911.50;;;17.26;56.92
25722;BME280;13578;53.450;15.496;2023-05-08T11:59:40;100905.66;;;17.29;58.28
25722;BME280;13578;53.450;15.496;2023-05-08T12:02:42;100906.56;;;17.20;56.18
25722;BME280;13578;53.450;15.496;2023-05-08T12:05:46;100938.28;;;17.18;60.80
25722;BME280;13578;53.450;15.496;2023-05-08T12:08:47;100927.00;;;17.29;59.06
25722;BME280;13578;53.450;15.496;2023-05-08T12:11:55;100913.88;;;17.21;58.91
25722;BME280;13578;53.450;15.496;2023-05-08T12:14:56;100881.34;;;16.95;55.63
25722;BME280;13578;53.450;15.496;2023-05-08T12:18:00;100892.72;;;16.92;55.39
25722;BME280;13578;53.450;15.496;2023-05-08T12:21:04;100925.19;;;17.10;59.99
25722;BME280;13578;53.450;15.496;2023-05-08T12:24:06;100902.22;;;17.18;57.51
25722;BME280;13578;53.450;15.496;2023-05-08T12:27:07;100880.59;;;17.21;55.73
25722;BME280;13578;53.450;15.496;2023-05-08T12:30:10;100906.44;;;17.22;58.05
25722;BME280;13578;53.450;15.496;2023-05-08T12:33:13;100893.13;;;17.25;56.85
25722;BME280;13578;53.450;15.496;2023-05-08T12:36:14;100890.13;;;17.37;56.43
25722;BME280;13578;53.450;15.496;2023-05-08T12:39:17;100883.00;;;17.34;55.82
25722;BME280;13578;53.450;15.496;2023-05-08T12:42:18;100885.59;;;17.36;55.99
25722;BME280;13578;53.450;15.496;2023-05-08T12:45:25;100872.13;;;17.41;55.06
25722;BME280;13578;53.450;15.496;2023-05-08T12:48:27;100897.88;;;17.33;56.29
25722;BME280;13578;53.450;15.496;2023-05-08T12:51:29;100880.44;;;17.41;54.93
25722;BME280;13578;53.450;15.496;2023-05-08T12:54:34;100910.44;;;17.55;58.21
25722;BME280;13578;53.450;15.496;2023-05-08T12:57:35;100865.34;;;17.53;54.07
25722;BME280;13578;53.450;15.496;2023-05-08T13:00:41;100864.91;;;17.66;54.74
25722;BME280;13578;53.450;15.496;2023-05-08T13:03:41;100871.75;;;17.72;55.55
25722;BME280;13578;53.450;15.496;2023-05-08T13:06:53;100887.69;;;17.70;55.58
25722;BME280;13578;53.450;15.496;2023-05-08T13:10:01;100858.19;;;17.69;52.96
25722;BME280;13578;53.450;15.496;2023-05-08T13:13:03;100855.91;;;17.64;53.24
25722;BME280;13578;53.450;15.496;2023-05-08T13:16:05;100845.44;;;17.58;52.72
25722;BME280;13578;53.450;15.496;2023-05-08T13:19:06;100855.44;;;17.51;54.06
25722;BME280;13578;53.450;15.496;2023-05-08T13:22:06;100872.69;;;17.62;56.12
25722;BME280;13578;53.450;15.496;2023-05-08T13:25:08;100839.72;;;17.59;52.41
25722;BME280;13578;53.450;15.496;2023-05-08T13:28:09;100857.22;;;17.60;53.83
25722;BME280;13578;53.450;15.496;2023-05-08T13:31:10;100863.97;;;17.75;54.51
25722;BME280;13578;53.450;15.496;2023-05-08T13:34:10;100846.03;;;17.70;53.35
25722;BME280;13578;53.450;15.496;2023-05-08T13:37:11;100850.34;;;17.64;54.29
25722;BME280;13578;53.450;15.496;2023-05-08T13:40:14;100840.56;;;17.60;52.56
25722;BME280;13578;53.450;15.496;2023-05-08T13:43:14;100828.38;;;17.53;51.89
25722;BME280;13578;53.450;15.496;2023-05-08T13:46:15;100820.78;;;17.37;51.94
25722;BME280;13578;53.450;15.496;2023-05-08T13:49:16;100821.72;;;17.45;51.97
25722;BME280;13578;53.450;15.496;2023-05-08T13:52:18;100838.91;;;17.49;53.99
25722;BME280;13578;53.450;15.496;2023-05-08T13:55:19;100813.47;;;17.54;51.62
25722;BME280;13578;53.450;15.496;2023-05-08T13:58:21;100786.59;;;17.54;49.57
25722;BME280;13578;53.450;15.496;2023-05-08T14:01:22;100828.91;;;17.56;53.90
25722;BME280;13578;53.450;15.496;2023-05-08T14:04:22;100816.06;;;17.55;52.53
25722;BME280;13578;53.450;15.496;2023-05-08T14:07:23;100802.53;;;17.52;50.84
25722;BME280;13578;53.450;15.496;2023-05-08T14:10:23;100817.25;;;17.53;52.55
25722;BME280;13578;53.450;15.496;2023-05-08T14:13:24;100816.03;;;17.47;52.94
25722;BME280;13578;53.450;15.496;2023-05-08T14:16:25;100779.94;;;17.47;50.31
25722;BME280;13578;53.450;15.496;2023-05-08T14:19:25;100787.56;;;17.45;51.04
25722;BME280;13578;53.450;15.496;2023-05-08T14:22:26;100802.16;;;17.47;51.91
25722;BME280;13578;53.450;15.496;2023-05-08T14:25:27;100816.97;;;17.56;52.60
25722;BME280;13578;53.450;15.496;2023-05-08T14:28:29;100797.16;;;17.51;51.24
25722;BME280;13578;53.450;15.496;2023-05-08T14:31:29;100775.81;;;17.51;49.67
25722;BME280;13578;53.450;15.496;2023-05-08T14:34:30;100774.72;;;17.44;49.95
25722;BME280;13578;53.450;15.496;2023-05-08T14:37:31;100771.22;;;17.42;48.47
25722;BME280;13578;53.450;15.496;2023-05-08T14:40:31;100776.69;;;17.34;48.93
25722;BME280;13578;53.450;15.496;2023-05-08T14:43:32;100766.88;;;17.21;48.63
25722;BME280;13578;53.450;15.496;2023-05-08T14:46:32;100749.19;;;17.22;47.02
25722;BME280;13578;53.450;15.496;2023-05-08T14:49:33;100777.16;;;17.11;49.55
25722;BME280;13578;53.450;15.496;2023-05-08T14:52:34;100768.81;;;17.11;48.75
25722;BME280;13578;53.450;15.496;2023-05-08T14:55:34;100763.06;;;17.22;48.74
25722;BME280;13578;53.450;15.496;2023-05-08T14:58:35;100741.91;;;17.21;47.23
25722;BME280;13578;53.450;15.496;2023-05-08T15:01:35;100777.66;;;17.24;50.40
25722;BME280;13578;53.450;15.496;2023-05-08T15:04:40;100772.31;;;17.31;49.94
25722;BME280;13578;53.450;15.496;2023-05-08T15:07:41;100764.66;;;17.25;50.21
25722;BME280;13578;53.450;15.496;2023-05-08T15:10:42;100762.34;;;17.20;49.47
25722;BME280;13578;53.450;15.496;2023-05-08T15:13:43;100753.25;;;17.10;49.37
25722;BME280;13578;53.450;15.496;2023-05-08T15:16:43;100758.78;;;17.10;51.04
25722;BME280;13578;53.450;15.496;2023-05-08T15:19:44;100744.75;;;17.11;48.83
25722;BME280;13578;53.450;15.496;2023-05-08T15:22:45;100736.75;;;17.08;49.38
25722;BME280;13578;53.450;15.496;2023-05-08T15:25:46;100747.38;;;17.13;48.74
25722;BME280;13578;53.450;15.496;2023-05-08T15:28:47;100725.09;;;17.05;48.36
25722;BME280;13578;53.450;15.496;2023-05-08T15:31:47;100740.16;;;17.02;49.52
25722;BME280;13578;53.450;15.496;2023-05-08T15:34:48;100735.41;;;16.94;49.39
25722;BME280;13578;53.450;15.496;2023-05-08T15:37:49;100720.66;;;16.94;47.03
25722;BME280;13578;53.450;15.496;2023-05-08T15:40:49;100742.59;;;16.87;49.69
25722;BME280;13578;53.450;15.496;2023-05-08T15:43:50;100748.56;;;16.92;49.63
25722;BME280;13578;53.450;15.496;2023-05-08T15:46:51;100729.69;;;16.96;48.05
25722;BME280;13578;53.450;15.496;2023-05-08T15:49:52;100712.72;;;16.81;47.26
25722;BME280;13578;53.450;15.496;2023-05-08T15:52:53;100737.66;;;16.81;48.95
25722;BME280;13578;53.450;15.496;2023-05-08T15:55:53;100732.81;;;16.83;49.33
25722;BME280;13578;53.450;15.496;2023-05-08T15:58:56;100731.22;;;16.80;48.85
25722;BME280;13578;53.450;15.496;2023-05-08T16:01:56;100729.66;;;16.78;49.34
25722;BME280;13578;53.450;15.496;2023-05-08T16:04:57;100742.50;;;16.79;50.29